sensor_id;sensor_type;location;lat;lon;timestamp;P1;durP1;ratioP1;P2;durP2;ratioP2
34142;SDS011;20419;10.658;106.724;2024-01-30T00:00:53;11.98;;;8.60;;
34142;SDS011;20419;10.658;106.724;2024-01-30T00:03:19;12.63;;;9.35;;
34142;SDS011;20419;10.658;106.724;2024-01-30T00:05:47;13.13;;;9.18;;
34142;SDS011;20419;10.658;106.724;2024-01-30T00:08:13;14.55;;;8.82;;
34142;SDS011;20419;10.658;106.724;2024-01-30T00:10:41;14.95;;;8.85;;
34142;SDS011;20419;10.658;106.724;2024-01-30T00:13:09;13.10;;;9.43;;
34142;SDS011;20419;10.658;106.724;2024-01-30T00:15:36;12.38;;;9.13;;
34142;SDS011;20419;10.658;106.724;2024-01-30T00:18:03;13.57;;;8.93;;
34142;SDS011;20419;10.658;106.724;2024-01-30T00:20:30;13.18;;;8.25;;
34142;SDS011;20419;10.658;106.724;2024-01-30T00:22:57;11.50;;;8.35;;
34142;SDS011;20419;10.658;106.724;2024-01-30T00:25:24;12.30;;;8.55;;
34142;SDS011;20419;10.658;106.724;2024-01-30T00:27:51;12.63;;;9.40;;
34142;SDS011;20419;10.658;106.724;2024-01-30T00:30:17;12.70;;;8.60;;
34142;SDS011;20419;10.658;106.724;2024-01-30T00:32:45;13.63;;;8.52;;
34142;SDS011;20419;10.658;106.724;2024-01-30T00:35:11;12.55;;;8.40;;
34142;SDS011;20419;10.658;106.724;2024-01-30T00:37:38;13.88;;;8.85;;
34142;SDS011;20419;10.658;106.724;2024-01-30T00:40:05;13.77;;;9.10;;
34142;SDS011;20419;10.658;106.724;2024-01-30T00:42:33;12.30;;;8.30;;
34142;SDS011;20419;10.658;106.724;2024-01-30T00:44:59;13.27;;;8.70;;
34142;SDS011;20419;10.658;106.724;2024-01-30T00:47:26;11.70;;;8.45;;
34142;SDS011;20419;10.658;106.724;2024-01-30T00:49:54;11.47;;;8.27;;
34142;SDS011;20419;10.658;106.724;2024-01-30T00:52:21;12.45;;;8.45;;
34142;SDS011;20419;10.658;106.724;2024-01-30T00:54:48;12.73;;;8.48;;
34142;SDS011;20419;10.658;106.724;2024-01-30T00:57:16;11.43;;;8.02;;
34142;SDS011;20419;10.658;106.724;2024-01-30T00:59:43;12.80;;;8.47;;
34142;SDS011;20419;10.658;106.724;2024-01-30T01:02:10;12.30;;;8.38;;
34142;SDS011;20419;10.658;106.724;2024-01-30T01:04:36;11.20;;;7.88;;
34142;SDS011;20419;10.658;106.724;2024-01-30T01:07:03;10.18;;;7.93;;
34142;SDS011;20419;10.658;106.724;2024-01-30T01:09:30;10.77;;;8.23;;
34142;SDS011;20419;10.658;106.724;2024-01-30T01:11:57;11.27;;;7.95;;
34142;SDS011;20419;10.658;106.724;2024-01-30T01:14:24;10.73;;;8.25;;
34142;SDS011;20419;10.658;106.724;2024-01-30T01:16:51;10.73;;;8.20;;
34142;SDS011;20419;10.658;106.724;2024-01-30T01:19:18;11.10;;;7.72;;
34142;SDS011;20419;10.658;106.724;2024-01-30T01:21:44;13.10;;;9.13;;
34142;SDS011;20419;10.658;106.724;2024-01-30T01:24:11;10.73;;;7.80;;
34142;SDS011;20419;10.658;106.724;2024-01-30T01:26:39;13.40;;;8.68;;
34142;SDS011;20419;10.658;106.724;2024-01-30T01:29:06;12.18;;;8.43;;
34142;SDS011;20419;10.658;106.724;2024-01-30T01:31:37;11.60;;;8.02;;
34142;SDS011;20419;10.658;106.724;2024-01-30T01:34:11;11.20;;;7.60;;
34142;SDS011;20419;10.658;106.724;2024-01-30T01:36:38;10.82;;;7.22;;
34142;SDS011;20419;10.658;106.724;2024-01-30T01:39:05;11.18;;;7.78;;
34142;SDS011;20419;10.658;106.724;2024-01-30T01:41:32;10.68;;;7.78;;
34142;SDS011;20419;10.658;106.724;2024-01-30T01:43:59;9.70;;;7.03;;
34142;SDS011;20419;10.658;106.724;2024-01-30T01:46:27;10.77;;;7.70;;
34142;SDS011;20419;10.658;106.724;2024-01-30T01:48:55;9.80;;;7.40;;
34142;SDS011;20419;10.658;106.724;2024-01-30T01:51:23;9.93;;;7.28;;
34142;SDS011;20419;10.658;106.724;2024-01-30T01:53:51;9.18;;;7.15;;
34142;SDS011;20419;10.658;106.724;2024-01-30T01:56:18;10.82;;;7.40;;
34142;SDS011;20419;10.658;106.724;2024-01-30T01:58:45;11.10;;;7.38;;
34142;SDS011;20419;10.658;106.724;2024-01-30T02:01:13;9.80;;;6.97;;
34142;SDS011;20419;10.658;106.724;2024-01-30T02:03:40;10.05;;;7.25;;
34142;SDS011;20419;10.658;106.724;2024-01-30T02:06:07;8.32;;;7.25;;
34142;SDS011;20419;10.658;106.724;2024-01-30T02:08:34;10.70;;;7.88;;
34142;SDS011;20419;10.658;106.724;2024-01-30T02:11:03;9.73;;;7.85;;
34142;SDS011;20419;10.658;106.724;2024-01-30T02:13:30;11.32;;;7.03;;
34142;SDS011;20419;10.658;106.724;2024-01-30T02:15:57;10.32;;;7.30;;
34142;SDS011;20419;10.658;106.724;2024-01-30T02:18:24;8.45;;;6.70;;
34142;SDS011;20419;10.658;106.724;2024-01-30T02:20:51;9.52;;;7.10;;
34142;SDS011;20419;10.658;106.724;2024-01-30T02:23:19;10.07;;;7.03;;
34142;SDS011;20419;10.658;106.724;2024-01-30T02:25:46;10.38;;;7.00;;
34142;SDS011;20419;10.658;106.724;2024-01-30T02:28:13;8.95;;;6.60;;
34142;SDS011;20419;10.658;106.724;2024-01-30T02:30:44;9.48;;;6.85;;
34142;SDS011;20419;10.658;106.724;2024-01-30T02:33:11;10.23;;;7.00;;
34142;SDS011;20419;10.658;106.724;2024-01-30T02:35:38;9.73;;;7.00;;
34142;SDS011;20419;10.658;106.724;2024-01-30T02:38:07;8.63;;;6.22;;
34142;SDS011;20419;10.658;106.724;2024-01-30T02:40:34;9.05;;;6.30;;
34142;SDS011;20419;10.658;106.724;2024-01-30T02:43:01;9.13;;;6.80;;
34142;SDS011;20419;10.658;106.724;2024-01-30T02:45:28;9.02;;;6.63;;
34142;SDS011;20419;10.658;106.724;2024-01-30T02:47:55;9.63;;;6.90;;
34142;SDS011;20419;10.658;106.724;2024-01-30T02:50:22;9.40;;;6.90;;
34142;SDS011;20419;10.658;106.724;2024-01-30T02:52:49;10.25;;;6.82;;
34142;SDS011;20419;10.658;106.724;2024-01-30T02:55:15;9.02;;;6.50;;
34142;SDS011;20419;10.658;106.724;2024-01-30T02:57:46;8.63;;;5.90;;
34142;SDS011;20419;10.658;106.724;2024-01-30T03:00:13;8.20;;;6.32;;
34142;SDS011;20419;10.658;106.724;2024-01-30T03:02:40;11.60;;;7.25;;
34142;SDS011;20419;10.658;106.724;2024-01-30T03:05:07;10.05;;;6.45;;
34142;SDS011;20419;10.658;106.724;2024-01-30T03:10:04;8.75;;;6.65;;
34142;SDS011;20419;10.658;106.724;2024-01-30T03:12:32;9.73;;;6.80;;
34142;SDS011;20419;10.658;106.724;2024-01-30T03:14:59;8.05;;;6.20;;
34142;SDS011;20419;10.658;106.724;2024-01-30T03:17:26;9.20;;;6.47;;
34142;SDS011;20419;10.658;106.724;2024-01-30T03:19:53;8.63;;;6.43;;
34142;SDS011;20419;10.658;106.724;2024-01-30T03:22:20;8.70;;;6.47;;
34142;SDS011;20419;10.658;106.724;2024-01-30T03:24:47;8.80;;;6.65;;
34142;SDS011;20419;10.658;106.724;2024-01-30T03:27:14;7.30;;;5.45;;
34142;SDS011;20419;10.658;106.724;2024-01-30T03:29:40;7.72;;;5.82;;
34142;SDS011;20419;10.658;106.724;2024-01-30T03:32:07;7.22;;;5.75;;
34142;SDS011;20419;10.658;106.724;2024-01-30T03:34:34;7.10;;;5.32;;
34142;SDS011;20419;10.658;106.724;2024-01-30T03:37:01;7.13;;;5.43;;
34142;SDS011;20419;10.658;106.724;2024-01-30T03:39:28;8.02;;;5.80;;
34142;SDS011;20419;10.658;106.724;2024-01-30T03:41:55;8.02;;;5.68;;
34142;SDS011;20419;10.658;106.724;2024-01-30T03:44:22;6.65;;;5.47;;
34142;SDS011;20419;10.658;106.724;2024-01-30T03:46:49;7.85;;;5.60;;
34142;SDS011;20419;10.658;106.724;2024-01-30T03:49:16;7.90;;;5.28;;
34142;SDS011;20419;10.658;106.724;2024-01-30T03:51:43;7.28;;;5.55;;
34142;SDS011;20419;10.658;106.724;2024-01-30T03:54:10;8.45;;;5.68;;
34142;SDS011;20419;10.658;106.724;2024-01-30T03:56:37;8.60;;;5.25;;
34142;SDS011;20419;10.658;106.724;2024-01-30T03:59:03;10.02;;;5.82;;
34142;SDS011;20419;10.658;106.724;2024-01-30T04:01:30;10.25;;;5.60;;
34142;SDS011;20419;10.658;106.724;2024-01-30T04:03:57;6.97;;;5.20;;
34142;SDS011;20419;10.658;106.724;2024-01-30T04:06:24;8.07;;;5.07;;
34142;SDS011;20419;10.658;106.724;2024-01-30T04:08:51;7.45;;;5.32;;
34142;SDS011;20419;10.658;106.724;2024-01-30T04:11:18;8.93;;;5.75;;
34142;SDS011;20419;10.658;106.724;2024-01-30T04:13:45;8.88;;;5.50;;
34142;SDS011;20419;10.658;106.724;2024-01-30T04:16:22;8.33;;;5.37;;
34142;SDS011;20419;10.658;106.724;2024-01-30T04:18:51;9.77;;;5.75;;
34142;SDS011;20419;10.658;106.724;2024-01-30T04:21:18;9.20;;;5.30;;
34142;SDS011;20419;10.658;106.724;2024-01-30T04:23:44;17.73;;;6.18;;
34142;SDS011;20419;10.658;106.724;2024-01-30T04:26:11;9.85;;;5.50;;
34142;SDS011;20419;10.658;106.724;2024-01-30T04:28:38;7.35;;;5.25;;
34142;SDS011;20419;10.658;106.724;2024-01-30T04:31:05;7.25;;;5.45;;
34142;SDS011;20419;10.658;106.724;2024-01-30T04:33:32;9.80;;;6.05;;
34142;SDS011;20419;10.658;106.724;2024-01-30T04:35:59;7.50;;;5.38;;
34142;SDS011;20419;10.658;106.724;2024-01-30T04:38:26;10.27;;;5.05;;
34142;SDS011;20419;10.658;106.724;2024-01-30T04:40:53;7.40;;;5.05;;
34142;SDS011;20419;10.658;106.724;2024-01-30T04:43:20;10.07;;;6.03;;
34142;SDS011;20419;10.658;106.724;2024-01-30T04:45:47;8.45;;;5.65;;
34142;SDS011;20419;10.658;106.724;2024-01-30T04:48:13;7.00;;;5.40;;
34142;SDS011;20419;10.658;106.724;2024-01-30T04:50:40;8.05;;;5.35;;
34142;SDS011;20419;10.658;106.724;2024-01-30T04:53:07;8.20;;;5.75;;
34142;SDS011;20419;10.658;106.724;2024-01-30T04:55:34;8.13;;;5.50;;
34142;SDS011;20419;10.658;106.724;2024-01-30T04:58:01;9.20;;;6.38;;
34142;SDS011;20419;10.658;106.724;2024-01-30T05:00:28;9.77;;;5.25;;
34142;SDS011;20419;10.658;106.724;2024-01-30T05:02:56;7.43;;;5.30;;
34142;SDS011;20419;10.658;106.724;2024-01-30T05:05:23;7.78;;;5.13;;
34142;SDS011;20419;10.658;106.724;2024-01-30T05:07:50;7.50;;;5.20;;
34142;SDS011;20419;10.658;106.724;2024-01-30T05:10:17;7.72;;;5.57;;
34142;SDS011;20419;10.658;106.724;2024-01-30T05:12:44;7.47;;;5.88;;
34142;SDS011;20419;10.658;106.724;2024-01-30T05:15:10;8.90;;;5.60;;
34142;SDS011;20419;10.658;106.724;2024-01-30T05:17:37;7.15;;;5.65;;
34142;SDS011;20419;10.658;106.724;2024-01-30T05:20:04;7.85;;;5.85;;
34142;SDS011;20419;10.658;106.724;2024-01-30T05:22:31;6.97;;;5.32;;
34142;SDS011;20419;10.658;106.724;2024-01-30T05:24:58;7.78;;;5.55;;
34142;SDS011;20419;10.658;106.724;2024-01-30T05:27:25;8.10;;;6.20;;
34142;SDS011;20419;10.658;106.724;2024-01-30T05:29:52;8.20;;;5.70;;
34142;SDS011;20419;10.658;106.724;2024-01-30T05:32:19;7.53;;;5.63;;
34142;SDS011;20419;10.658;106.724;2024-01-30T05:34:45;8.30;;;5.65;;
34142;SDS011;20419;10.658;106.724;2024-01-30T05:37:12;6.93;;;5.50;;
34142;SDS011;20419;10.658;106.724;2024-01-30T05:39:42;7.60;;;5.50;;
34142;SDS011;20419;10.658;106.724;2024-01-30T05:42:09;9.88;;;5.57;;
34142;SDS011;20419;10.658;106.724;2024-01-30T05:44:36;7.47;;;5.75;;
34142;SDS011;20419;10.658;106.724;2024-01-30T05:47:02;10.02;;;6.53;;
34142;SDS011;20419;10.658;106.724;2024-01-30T05:49:30;8.10;;;5.63;;
34142;SDS011;20419;10.658;106.724;2024-01-30T05:51:56;8.50;;;5.97;;
34142;SDS011;20419;10.658;106.724;2024-01-30T05:54:23;7.93;;;5.20;;
34142;SDS011;20419;10.658;106.724;2024-01-30T05:56:50;7.18;;;5.28;;
34142;SDS011;20419;10.658;106.724;2024-01-30T05:59:17;8.82;;;5.50;;
34142;SDS011;20419;10.658;106.724;2024-01-30T06:01:47;6.78;;;5.40;;
34142;SDS011;20419;10.658;106.724;2024-01-30T06:04:14;7.20;;;5.55;;
34142;SDS011;20419;10.658;106.724;2024-01-30T06:06:41;7.53;;;5.32;;
34142;SDS011;20419;10.658;106.724;2024-01-30T06:09:08;7.50;;;5.50;;
34142;SDS011;20419;10.658;106.724;2024-01-30T06:11:35;7.53;;;5.50;;
34142;SDS011;20419;10.658;106.724;2024-01-30T06:14:02;8.45;;;5.22;;
34142;SDS011;20419;10.658;106.724;2024-01-30T06:16:29;8.15;;;5.38;;
34142;SDS011;20419;10.658;106.724;2024-01-30T06:18:56;8.63;;;5.53;;
34142;SDS011;20419;10.658;106.724;2024-01-30T06:21:23;7.50;;;5.68;;
34142;SDS011;20419;10.658;106.724;2024-01-30T06:23:50;7.00;;;5.30;;
34142;SDS011;20419;10.658;106.724;2024-01-30T06:26:17;9.07;;;6.20;;
34142;SDS011;20419;10.658;106.724;2024-01-30T06:28:44;6.55;;;5.38;;
34142;SDS011;20419;10.658;106.724;2024-01-30T06:31:11;7.88;;;6.13;;
34142;SDS011;20419;10.658;106.724;2024-01-30T06:33:37;6.60;;;5.50;;
34142;SDS011;20419;10.658;106.724;2024-01-30T06:36:04;7.85;;;5.57;;
34142;SDS011;20419;10.658;106.724;2024-01-30T06:38:31;9.68;;;5.43;;
34142;SDS011;20419;10.658;106.724;2024-01-30T06:40:58;7.57;;;5.70;;
34142;SDS011;20419;10.658;106.724;2024-01-30T06:43:25;9.35;;;5.80;;
34142;SDS011;20419;10.658;106.724;2024-01-30T06:45:52;7.90;;;5.53;;
34142;SDS011;20419;10.658;106.724;2024-01-30T06:48:19;7.40;;;5.38;;
34142;SDS011;20419;10.658;106.724;2024-01-30T06:50:46;8.70;;;6.85;;
34142;SDS011;20419;10.658;106.724;2024-01-30T06:53:13;9.15;;;7.00;;
34142;SDS011;20419;10.658;106.724;2024-01-30T06:55:40;9.07;;;7.25;;
34142;SDS011;20419;10.658;106.724;2024-01-30T06:58:07;11.27;;;7.28;;
34142;SDS011;20419;10.658;106.724;2024-01-30T07:00:34;9.02;;;7.50;;
34142;SDS011;20419;10.658;106.724;2024-01-30T07:03:01;10.60;;;7.57;;
34142;SDS011;20419;10.658;106.724;2024-01-30T07:05:28;9.35;;;7.40;;
34142;SDS011;20419;10.658;106.724;2024-01-30T07:07:55;10.43;;;7.32;;
34142;SDS011;20419;10.658;106.724;2024-01-30T07:10:22;9.60;;;7.78;;
34142;SDS011;20419;10.658;106.724;2024-01-30T07:12:49;10.95;;;8.23;;
34142;SDS011;20419;10.658;106.724;2024-01-30T07:15:16;10.45;;;6.82;;
34142;SDS011;20419;10.658;106.724;2024-01-30T07:17:45;10.60;;;7.55;;
34142;SDS011;20419;10.658;106.724;2024-01-30T07:20:12;10.32;;;7.78;;
34142;SDS011;20419;10.658;106.724;2024-01-30T07:22:40;10.05;;;7.80;;
34142;SDS011;20419;10.658;106.724;2024-01-30T07:25:07;9.13;;;7.22;;
34142;SDS011;20419;10.658;106.724;2024-01-30T07:27:34;10.68;;;7.10;;
34142;SDS011;20419;10.658;106.724;2024-01-30T07:30:01;9.27;;;7.22;;
34142;SDS011;20419;10.658;106.724;2024-01-30T07:32:28;10.55;;;7.88;;
34142;SDS011;20419;10.658;106.724;2024-01-30T07:34:55;9.85;;;7.15;;
34142;SDS011;20419;10.658;106.724;2024-01-30T07:37:21;9.45;;;6.20;;
34142;SDS011;20419;10.658;106.724;2024-01-30T07:39:49;10.85;;;7.32;;
34142;SDS011;20419;10.658;106.724;2024-01-30T07:42:17;9.90;;;7.63;;
34142;SDS011;20419;10.658;106.724;2024-01-30T07:44:44;10.50;;;7.00;;
34142;SDS011;20419;10.658;106.724;2024-01-30T07:47:11;10.98;;;7.35;;
34142;SDS011;20419;10.658;106.724;2024-01-30T07:49:40;11.70;;;7.93;;
34142;SDS011;20419;10.658;106.724;2024-01-30T07:52:07;9.25;;;6.88;;
34142;SDS011;20419;10.658;106.724;2024-01-30T07:54:34;9.70;;;6.57;;
34142;SDS011;20419;10.658;106.724;2024-01-30T07:57:04;10.65;;;7.95;;
34142;SDS011;20419;10.658;106.724;2024-01-30T07:59:31;9.32;;;7.22;;
34142;SDS011;20419;10.658;106.724;2024-01-30T08:01:58;9.07;;;6.97;;
34142;SDS011;20419;10.658;106.724;2024-01-30T08:04:25;11.45;;;6.95;;
34142;SDS011;20419;10.658;106.724;2024-01-30T08:06:52;9.32;;;7.00;;
34142;SDS011;20419;10.658;106.724;2024-01-30T08:09:18;8.75;;;6.55;;
34142;SDS011;20419;10.658;106.724;2024-01-30T08:11:45;8.43;;;6.88;;
34142;SDS011;20419;10.658;106.724;2024-01-30T08:14:12;8.52;;;6.95;;
34142;SDS011;20419;10.658;106.724;2024-01-30T08:16:40;8.48;;;7.10;;
34142;SDS011;20419;10.658;106.724;2024-01-30T08:19:06;9.77;;;7.05;;
34142;SDS011;20419;10.658;106.724;2024-01-30T08:21:33;9.48;;;7.05;;
34142;SDS011;20419;10.658;106.724;2024-01-30T08:24:05;10.57;;;7.05;;
34142;SDS011;20419;10.658;106.724;2024-01-30T08:26:32;9.18;;;6.90;;
34142;SDS011;20419;10.658;106.724;2024-01-30T08:28:59;8.93;;;6.78;;
34142;SDS011;20419;10.658;106.724;2024-01-30T08:31:26;10.55;;;7.30;;
34142;SDS011;20419;10.658;106.724;2024-01-30T08:33:53;8.73;;;6.55;;
34142;SDS011;20419;10.658;106.724;2024-01-30T08:36:20;9.38;;;6.63;;
34142;SDS011;20419;10.658;106.724;2024-01-30T08:38:47;9.15;;;6.82;;
34142;SDS011;20419;10.658;106.724;2024-01-30T08:41:14;9.93;;;7.05;;
34142;SDS011;20419;10.658;106.724;2024-01-30T08:43:40;8.57;;;6.97;;
34142;SDS011;20419;10.658;106.724;2024-01-30T08:46:07;9.88;;;6.90;;
34142;SDS011;20419;10.658;106.724;2024-01-30T08:48:35;8.50;;;6.72;;
34142;SDS011;20419;10.658;106.724;2024-01-30T08:51:02;10.65;;;6.47;;
34142;SDS011;20419;10.658;106.724;2024-01-30T08:53:34;10.10;;;6.85;;
34142;SDS011;20419;10.658;106.724;2024-01-30T08:56:02;8.45;;;5.97;;
34142;SDS011;20419;10.658;106.724;2024-01-30T08:58:29;8.18;;;5.68;;
34142;SDS011;20419;10.658;106.724;2024-01-30T09:00:56;8.18;;;6.55;;
34142;SDS011;20419;10.658;106.724;2024-01-30T09:03:22;9.13;;;6.90;;
34142;SDS011;20419;10.658;106.724;2024-01-30T09:05:49;8.27;;;6.18;;
34142;SDS011;20419;10.658;106.724;2024-01-30T09:08:16;8.30;;;6.15;;
34142;SDS011;20419;10.658;106.724;2024-01-30T09:10:43;8.98;;;6.43;;
34142;SDS011;20419;10.658;106.724;2024-01-30T09:13:10;8.93;;;6.32;;
34142;SDS011;20419;10.658;106.724;2024-01-30T09:15:37;8.68;;;5.97;;
34142;SDS011;20419;10.658;106.724;2024-01-30T09:18:04;7.57;;;5.93;;
34142;SDS011;20419;10.658;106.724;2024-01-30T09:20:31;8.25;;;6.75;;
34142;SDS011;20419;10.658;106.724;2024-01-30T09:22:58;8.15;;;6.38;;
34142;SDS011;20419;10.658;106.724;2024-01-30T09:25:25;8.13;;;6.00;;
34142;SDS011;20419;10.658;106.724;2024-01-30T09:27:51;9.75;;;6.75;;
34142;SDS011;20419;10.658;106.724;2024-01-30T09:30:18;8.30;;;6.05;;
34142;SDS011;20419;10.658;106.724;2024-01-30T09:32:45;8.48;;;6.35;;
34142;SDS011;20419;10.658;106.724;2024-01-30T09:35:12;7.18;;;5.68;;
34142;SDS011;20419;10.658;106.724;2024-01-30T09:37:39;8.73;;;6.22;;
34142;SDS011;20419;10.658;106.724;2024-01-30T09:40:06;8.52;;;6.25;;
34142;SDS011;20419;10.658;106.724;2024-01-30T09:42:34;9.15;;;6.03;;
34142;SDS011;20419;10.658;106.724;2024-01-30T09:45:02;7.78;;;5.88;;
34142;SDS011;20419;10.658;106.724;2024-01-30T09:48:02;8.10;;;5.80;;
34142;SDS011;20419;10.658;106.724;2024-01-30T09:50:22;10.88;;;6.65;;
34142;SDS011;20419;10.658;106.724;2024-01-30T09:52:49;8.40;;;6.45;;
34142;SDS011;20419;10.658;106.724;2024-01-30T09:55:16;8.65;;;6.43;;
34142;SDS011;20419;10.658;106.724;2024-01-30T09:57:43;8.98;;;6.00;;
34142;SDS011;20419;10.658;106.724;2024-01-30T10:00:10;7.80;;;6.35;;
34142;SDS011;20419;10.658;106.724;2024-01-30T10:02:38;10.25;;;6.25;;
34142;SDS011;20419;10.658;106.724;2024-01-30T10:05:05;7.97;;;6.00;;
34142;SDS011;20419;10.658;106.724;2024-01-30T10:07:32;7.28;;;5.55;;
34142;SDS011;20419;10.658;106.724;2024-01-30T10:09:59;7.85;;;6.13;;
34142;SDS011;20419;10.658;106.724;2024-01-30T10:12:28;8.30;;;6.00;;
34142;SDS011;20419;10.658;106.724;2024-01-30T10:14:56;8.27;;;5.93;;
34142;SDS011;20419;10.658;106.724;2024-01-30T10:17:24;7.35;;;5.65;;
34142;SDS011;20419;10.658;106.724;2024-01-30T10:19:52;6.28;;;5.03;;
34142;SDS011;20419;10.658;106.724;2024-01-30T10:22:19;7.60;;;5.57;;
34142;SDS011;20419;10.658;106.724;2024-01-30T10:24:46;9.60;;;5.57;;
34142;SDS011;20419;10.658;106.724;2024-01-30T10:27:15;6.70;;;5.05;;
34142;SDS011;20419;10.658;106.724;2024-01-30T10:29:42;6.68;;;5.10;;
34142;SDS011;20419;10.658;106.724;2024-01-30T10:32:08;8.02;;;5.50;;
34142;SDS011;20419;10.658;106.724;2024-01-30T10:34:36;6.97;;;5.68;;
34142;SDS011;20419;10.658;106.724;2024-01-30T10:37:09;7.95;;;5.28;;
34142;SDS011;20419;10.658;106.724;2024-01-30T10:39:43;6.93;;;4.95;;
34142;SDS011;20419;10.658;106.724;2024-01-30T10:42:14;8.57;;;5.20;;
34142;SDS011;20419;10.658;106.724;2024-01-30T10:44:48;6.75;;;5.20;;
34142;SDS011;20419;10.658;106.724;2024-01-30T10:47:15;6.68;;;4.88;;
34142;SDS011;20419;10.658;106.724;2024-01-30T10:49:45;7.53;;;5.00;;
34142;SDS011;20419;10.658;106.724;2024-01-30T10:52:12;6.88;;;5.20;;
34142;SDS011;20419;10.658;106.724;2024-01-30T10:54:40;6.30;;;4.72;;
34142;SDS011;20419;10.658;106.724;2024-01-30T10:57:07;6.63;;;5.30;;
34142;SDS011;20419;10.658;106.724;2024-01-30T10:59:34;6.40;;;4.50;;
34142;SDS011;20419;10.658;106.724;2024-01-30T11:02:01;6.93;;;4.70;;
34142;SDS011;20419;10.658;106.724;2024-01-30T11:04:35;6.63;;;4.72;;
34142;SDS011;20419;10.658;106.724;2024-01-30T11:07:02;6.20;;;4.75;;
34142;SDS011;20419;10.658;106.724;2024-01-30T11:09:29;7.18;;;4.65;;
34142;SDS011;20419;10.658;106.724;2024-01-30T11:11:57;6.95;;;5.10;;
34142;SDS011;20419;10.658;106.724;2024-01-30T11:14:29;6.53;;;5.10;;
34142;SDS011;20419;10.658;106.724;2024-01-30T11:20:01;7.32;;;5.25;;
34142;SDS011;20419;10.658;106.724;2024-01-30T11:22:30;5.55;;;4.30;;
34142;SDS011;20419;10.658;106.724;2024-01-30T11:24:57;7.13;;;4.93;;
34142;SDS011;20419;10.658;106.724;2024-01-30T11:27:25;6.60;;;4.78;;
34142;SDS011;20419;10.658;106.724;2024-01-30T11:29:53;6.95;;;4.55;;
34142;SDS011;20419;10.658;106.724;2024-01-30T11:32:23;6.63;;;4.78;;
34142;SDS011;20419;10.658;106.724;2024-01-30T11:34:50;6.03;;;4.47;;
34142;SDS011;20419;10.658;106.724;2024-01-30T11:37:17;7.68;;;4.93;;
34142;SDS011;20419;10.658;106.724;2024-01-30T11:39:46;7.47;;;4.68;;
34142;SDS011;20419;10.658;106.724;2024-01-30T11:42:14;5.73;;;3.80;;
34142;SDS011;20419;10.658;106.724;2024-01-30T11:44:41;5.72;;;4.05;;
34142;SDS011;20419;10.658;106.724;2024-01-30T11:47:13;6.18;;;4.15;;
34142;SDS011;20419;10.658;106.724;2024-01-30T11:49:41;7.40;;;4.72;;
34142;SDS011;20419;10.658;106.724;2024-01-30T11:52:10;5.35;;;4.30;;
34142;SDS011;20419;10.658;106.724;2024-01-30T11:54:39;6.18;;;4.40;;
34142;SDS011;20419;10.658;106.724;2024-01-30T11:57:06;5.90;;;4.22;;
34142;SDS011;20419;10.658;106.724;2024-01-30T11:59:33;6.05;;;3.90;;
34142;SDS011;20419;10.658;106.724;2024-01-30T12:02:00;5.50;;;4.32;;
34142;SDS011;20419;10.658;106.724;2024-01-30T12:04:28;5.47;;;3.90;;
34142;SDS011;20419;10.658;106.724;2024-01-30T12:06:55;5.43;;;3.70;;
34142;SDS011;20419;10.658;106.724;2024-01-30T12:09:22;4.97;;;4.05;;
34142;SDS011;20419;10.658;106.724;2024-01-30T12:11:49;6.45;;;4.30;;
34142;SDS011;20419;10.658;106.724;2024-01-30T12:14:16;6.00;;;4.40;;
34142;SDS011;20419;10.658;106.724;2024-01-30T12:16:47;5.88;;;4.15;;
34142;SDS011;20419;10.658;106.724;2024-01-30T12:19:23;5.35;;;3.90;;
34142;SDS011;20419;10.658;106.724;2024-01-30T12:21:54;5.65;;;4.20;;
34142;SDS011;20419;10.658;106.724;2024-01-30T12:24:21;6.07;;;4.13;;
34142;SDS011;20419;10.658;106.724;2024-01-30T12:26:48;6.55;;;4.03;;
34142;SDS011;20419;10.658;106.724;2024-01-30T12:29:15;6.05;;;4.38;;
34142;SDS011;20419;10.658;106.724;2024-01-30T12:31:42;5.75;;;3.85;;
34142;SDS011;20419;10.658;106.724;2024-01-30T12:34:09;6.28;;;4.00;;
34142;SDS011;20419;10.658;106.724;2024-01-30T12:36:36;5.80;;;4.40;;
34142;SDS011;20419;10.658;106.724;2024-01-30T12:39:03;5.50;;;4.10;;
34142;SDS011;20419;10.658;106.724;2024-01-30T12:41:30;6.50;;;4.07;;
34142;SDS011;20419;10.658;106.724;2024-01-30T12:43:57;6.28;;;3.60;;
34142;SDS011;20419;10.658;106.724;2024-01-30T12:46:28;6.32;;;4.40;;
34142;SDS011;20419;10.658;106.724;2024-01-30T12:48:55;4.65;;;3.40;;
34142;SDS011;20419;10.658;106.724;2024-01-30T12:51:22;5.50;;;4.07;;
34142;SDS011;20419;10.658;106.724;2024-01-30T12:53:48;7.13;;;4.32;;
34142;SDS011;20419;10.658;106.724;2024-01-30T12:56:15;6.00;;;3.92;;
34142;SDS011;20419;10.658;106.724;2024-01-30T12:58:42;7.97;;;3.67;;
34142;SDS011;20419;10.658;106.724;2024-01-30T13:01:09;5.22;;;3.90;;
34142;SDS011;20419;10.658;106.724;2024-01-30T13:03:36;6.15;;;4.00;;
34142;SDS011;20419;10.658;106.724;2024-01-30T13:06:03;5.80;;;3.65;;
34142;SDS011;20419;10.658;106.724;2024-01-30T13:08:30;5.97;;;4.20;;
34142;SDS011;20419;10.658;106.724;2024-01-30T13:10:57;6.40;;;4.47;;
34142;SDS011;20419;10.658;106.724;2024-01-30T13:13:24;5.75;;;3.95;;
34142;SDS011;20419;10.658;106.724;2024-01-30T13:15:50;5.57;;;3.80;;
34142;SDS011;20419;10.658;106.724;2024-01-30T13:18:17;5.70;;;4.20;;
34142;SDS011;20419;10.658;106.724;2024-01-30T13:20:44;5.55;;;3.95;;
34142;SDS011;20419;10.658;106.724;2024-01-30T13:23:11;4.95;;;3.33;;
34142;SDS011;20419;10.658;106.724;2024-01-30T13:25:38;5.47;;;3.90;;
34142;SDS011;20419;10.658;106.724;2024-01-30T13:28:05;4.90;;;3.28;;
34142;SDS011;20419;10.658;106.724;2024-01-30T13:30:32;5.97;;;3.85;;
34142;SDS011;20419;10.658;106.724;2024-01-30T13:32:59;6.68;;;4.03;;
34142;SDS011;20419;10.658;106.724;2024-01-30T13:35:26;5.80;;;3.53;;
34142;SDS011;20419;10.658;106.724;2024-01-30T13:37:58;7.35;;;3.67;;
34142;SDS011;20419;10.658;106.724;2024-01-30T13:40:25;6.82;;;3.67;;
34142;SDS011;20419;10.658;106.724;2024-01-30T13:42:52;6.80;;;4.00;;
34142;SDS011;20419;10.658;106.724;2024-01-30T13:45:19;5.53;;;3.85;;
34142;SDS011;20419;10.658;106.724;2024-01-30T13:47:46;6.40;;;4.20;;
34142;SDS011;20419;10.658;106.724;2024-01-30T13:50:13;5.63;;;4.00;;
34142;SDS011;20419;10.658;106.724;2024-01-30T13:52:42;6.30;;;4.07;;
34142;SDS011;20419;10.658;106.724;2024-01-30T13:55:13;5.95;;;3.50;;
34142;SDS011;20419;10.658;106.724;2024-01-30T13:57:40;4.38;;;3.13;;
34142;SDS011;20419;10.658;106.724;2024-01-30T14:00:07;5.18;;;3.80;;
34142;SDS011;20419;10.658;106.724;2024-01-30T14:02:34;5.30;;;3.70;;
34142;SDS011;20419;10.658;106.724;2024-01-30T14:05:01;5.55;;;3.55;;
34142;SDS011;20419;10.658;106.724;2024-01-30T14:07:30;7.60;;;4.68;;
34142;SDS011;20419;10.658;106.724;2024-01-30T14:09:57;10.77;;;7.82;;
34142;SDS011;20419;10.658;106.724;2024-01-30T14:12:24;13.43;;;10.20;;
34142;SDS011;20419;10.658;106.724;2024-01-30T14:14:51;15.38;;;12.07;;
34142;SDS011;20419;10.658;106.724;2024-01-30T14:17:18;16.38;;;11.85;;
34142;SDS011;20419;10.658;106.724;2024-01-30T14:19:45;18.20;;;11.43;;
34142;SDS011;20419;10.658;106.724;2024-01-30T14:22:11;14.57;;;11.25;;
34142;SDS011;20419;10.658;106.724;2024-01-30T14:24:38;14.55;;;10.27;;